createdAt,value
2018-05-25T00:00:58.101Z,11.39
2018-05-25T00:01:58.117Z,11.43
2018-05-25T00:02:58.132Z,11.37
2018-05-25T00:03:58.147Z,11.37
2018-05-25T00:04:58.161Z,11.37
2018-05-25T00:05:58.177Z,11.36
2018-05-25T00:06:58.192Z,11.39
2018-05-25T00:07:58.213Z,11.40
2018-05-25T00:08:58.220Z,11.37
2018-05-25T00:09:58.238Z,11.35
2018-05-25T00:10:58.248Z,11.29
2018-05-25T00:11:58.267Z,11.32
2018-05-25T00:12:58.278Z,11.27
2018-05-25T00:13:58.293Z,11.29
2018-05-25T00:14:58.308Z,11.27
2018-05-25T00:15:58.327Z,11.24
2018-05-25T00:16:58.339Z,11.17
2018-05-25T00:17:58.356Z,11.19
2018-05-25T00:18:58.368Z,11.17
2018-05-25T00:19:58.388Z,11.17
2018-05-25T00:20:58.395Z,11.18
2018-05-25T00:21:58.409Z,11.18
2018-05-25T00:22:58.427Z,11.18
2018-05-25T00:23:58.440Z,11.27
2018-05-25T00:24:58.453Z,11.17
2018-05-25T00:25:58.470Z,11.15
2018-05-25T00:26:58.486Z,11.25
2018-05-25T00:27:58.503Z,11.19
2018-05-25T00:28:58.517Z,11.19
2018-05-25T00:29:58.530Z,11.17
2018-05-25T00:30:58.543Z,11.17
2018-05-25T00:31:58.562Z,11.17
2018-05-25T00:32:58.572Z,11.14
2018-05-25T00:33:58.586Z,11.15
2018-05-25T00:34:58.600Z,11.18
2018-05-25T00:35:58.619Z,11.07
2018-05-25T00:36:58.631Z,11.14
2018-05-25T00:37:58.644Z,11.15
2018-05-25T00:38:58.659Z,11.11
2018-05-25T00:39:58.674Z,11.11
2018-05-25T00:40:58.690Z,11.11
2018-05-25T00:41:58.704Z,11.10
2018-05-25T00:42:58.718Z,11.19
2018-05-25T00:43:58.733Z,11.14
2018-05-25T00:44:58.746Z,11.07
2018-05-25T00:45:58.762Z,11.03
2018-05-25T00:46:58.776Z,11.02
2018-05-25T00:47:58.791Z,11.00
2018-05-25T00:48:58.803Z,10.88
2018-05-25T00:49:58.821Z,10.88
2018-05-25T00:50:58.832Z,10.74
2018-05-25T00:51:58.847Z,10.79
2018-05-25T00:52:58.863Z,10.71
2018-05-25T00:53:58.880Z,10.71
2018-05-25T00:54:58.896Z,10.67
2018-05-25T00:55:58.907Z,10.61
2018-05-25T00:56:58.921Z,10.68
2018-05-25T00:57:58.937Z,10.63
2018-05-25T00:58:58.952Z,10.67
2018-05-25T00:59:58.965Z,10.59
2018-05-25T01:00:58.976Z,10.55
2018-05-25T01:01:58.993Z,10.53
2018-05-25T01:02:59.006Z,10.59
2018-05-25T01:03:59.022Z,10.45
2018-05-25T01:04:59.035Z,10.55
2018-05-25T01:05:59.049Z,10.52
2018-05-25T01:06:59.066Z,10.42
2018-05-25T01:07:59.080Z,10.38
2018-05-25T01:08:59.092Z,10.33
2018-05-25T01:09:59.107Z,10.40
2018-05-25T01:10:59.123Z,10.38
2018-05-25T01:11:59.134Z,10.40
2018-05-25T01:12:59.148Z,10.30
2018-05-25T01:13:59.163Z,10.30
2018-05-25T01:14:59.177Z,10.30
2018-05-25T01:15:59.192Z,10.18
2018-05-25T01:16:59.205Z,10.14
2018-05-25T01:17:59.220Z,10.12
2018-05-25T01:18:59.233Z,10.09
2018-05-25T01:19:59.249Z,10.18
2018-05-25T01:20:59.261Z,10.12
2018-05-25T01:21:59.273Z,10.14
2018-05-25T01:22:59.289Z,10.15
2018-05-25T01:23:59.309Z,10.09
2018-05-25T01:24:59.317Z,10.12
2018-05-25T01:25:59.339Z,10.17
2018-05-25T01:26:59.346Z,10.12
2018-05-25T01:27:59.360Z,10.11
2018-05-25T01:28:59.371Z,10.07
2018-05-25T01:29:59.385Z,10.14
2018-05-25T01:30:59.400Z,10.11
2018-05-25T01:31:59.414Z,10.09
2018-05-25T01:32:59.428Z,10.14
2018-05-25T01:33:59.442Z,10.20
2018-05-25T01:34:59.457Z,10.17
2018-05-25T01:35:59.470Z,10.01
2018-05-25T01:36:59.483Z,10.11
2018-05-25T01:37:59.497Z,10.01
2018-05-25T01:38:59.509Z,10.04
2018-05-25T01:39:59.526Z,10.08
2018-05-25T01:40:59.538Z,10.04
2018-05-25T01:41:59.550Z,10.05
2018-05-25T01:42:59.566Z,10.02
2018-05-25T01:43:59.578Z,10.04
2018-05-25T01:44:59.590Z,10.01
2018-05-25T01:45:59.605Z,10.14
2018-05-25T01:46:59.618Z,10.11
2018-05-25T01:47:59.633Z,10.14
2018-05-25T01:48:59.645Z,10.11
2018-05-25T01:49:59.660Z,10.01
2018-05-25T01:50:59.729Z,10.08
2018-05-25T01:51:59.691Z,10.05
2018-05-25T01:52:59.701Z,10.08
2018-05-25T01:53:59.714Z,10.07
2018-05-25T01:54:59.730Z,10.08
2018-05-25T01:55:59.743Z,10.07
2018-05-25T01:56:59.757Z,9.99
2018-05-25T01:57:59.770Z,10.01
2018-05-25T01:58:59.784Z,9.99
2018-05-25T01:59:59.802Z,9.93
2018-05-25T02:00:59.810Z,9.91
2018-05-25T02:01:59.825Z,9.90
2018-05-25T02:02:59.839Z,9.79
2018-05-25T02:03:59.852Z,9.84
2018-05-25T02:04:59.865Z,9.78
2018-05-25T02:05:59.879Z,9.75
2018-05-25T02:06:59.892Z,9.86
2018-05-25T02:07:59.907Z,9.83
2018-05-25T02:08:59.923Z,9.83
2018-05-25T02:09:59.933Z,9.83
2018-05-25T02:10:59.947Z,9.84
2018-05-25T02:11:59.966Z,9.79
2018-05-25T02:12:59.974Z,9.86
2018-05-25T02:13:59.992Z,9.86
2018-05-25T02:15:00.004Z,9.81
2018-05-25T02:16:00.018Z,9.83
2018-05-25T02:17:00.028Z,9.86
2018-05-25T02:18:00.043Z,9.89
2018-05-25T02:19:00.057Z,9.81
2018-05-25T02:20:00.071Z,9.72
2018-05-25T02:21:00.083Z,9.71
2018-05-25T02:22:00.100Z,9.78
2018-05-25T02:23:00.111Z,9.74
2018-05-25T02:24:00.124Z,9.75
2018-05-25T02:25:00.136Z,9.74
2018-05-25T02:26:00.151Z,9.65
2018-05-25T02:27:00.165Z,9.74
2018-05-25T02:28:00.178Z,9.71
2018-05-25T02:29:00.192Z,9.71
2018-05-25T02:30:00.207Z,9.71
2018-05-25T02:31:00.221Z,9.61
2018-05-25T02:32:00.232Z,9.68
2018-05-25T02:33:00.246Z,9.64
2018-05-25T02:34:00.258Z,9.65
2018-05-25T02:35:00.272Z,9.66
2018-05-25T02:36:00.293Z,9.72
2018-05-25T02:37:00.299Z,9.74
2018-05-25T02:38:00.311Z,9.69
2018-05-25T02:39:00.326Z,9.64
2018-05-25T02:40:00.340Z,9.72
2018-05-25T02:41:00.354Z,9.69
2018-05-25T02:42:00.367Z,9.72
2018-05-25T02:43:00.381Z,9.75
2018-05-25T02:44:00.397Z,9.74
2018-05-25T02:45:00.408Z,9.78
2018-05-25T02:46:00.421Z,9.75
2018-05-25T02:47:00.435Z,9.76
2018-05-25T02:48:00.448Z,9.76
2018-05-25T02:49:00.465Z,9.74
2018-05-25T02:50:00.476Z,9.76
2018-05-25T02:51:00.487Z,9.72
2018-05-25T02:52:00.504Z,9.79
2018-05-25T02:53:00.516Z,9.76
2018-05-25T02:54:00.529Z,9.76
2018-05-25T02:55:00.545Z,9.79
2018-05-25T02:56:00.556Z,9.69
2018-05-25T02:57:00.571Z,9.72
2018-05-25T02:58:00.584Z,9.76
2018-05-25T02:59:00.597Z,9.65
2018-05-25T03:00:00.612Z,9.71
2018-05-25T03:01:00.626Z,9.71
2018-05-25T03:02:00.636Z,9.74
2018-05-25T03:03:00.667Z,9.65
2018-05-25T03:04:00.666Z,9.72
2018-05-25T03:05:00.678Z,9.71
2018-05-25T03:06:00.692Z,9.71
2018-05-25T03:07:00.706Z,9.74
2018-05-25T03:08:00.721Z,9.72
2018-05-25T03:09:00.731Z,9.74
2018-05-25T03:10:00.746Z,9.69
2018-05-25T03:11:00.759Z,9.69
2018-05-25T03:12:00.773Z,9.69
2018-05-25T03:13:00.785Z,9.71
2018-05-25T03:14:00.802Z,9.72
2018-05-25T03:15:00.814Z,9.65
2018-05-25T03:16:00.828Z,9.65
2018-05-25T03:17:00.841Z,9.64
2018-05-25T03:18:00.858Z,9.72
2018-05-25T03:19:00.871Z,9.68
2018-05-25T03:20:00.882Z,9.75
2018-05-25T03:21:00.893Z,9.78
2018-05-25T03:22:00.907Z,9.65
2018-05-25T03:23:00.923Z,9.71
2018-05-25T03:24:00.936Z,9.61
2018-05-25T03:25:00.949Z,9.61
2018-05-25T03:26:00.986Z,9.61
2018-05-25T03:27:00.975Z,9.66
2018-05-25T03:28:00.991Z,9.64
2018-05-25T03:29:01.003Z,9.60
2018-05-25T03:30:01.024Z,9.61
2018-05-25T03:31:01.031Z,9.65
2018-05-25T03:32:01.045Z,9.64
2018-05-25T03:33:01.057Z,9.64
2018-05-25T03:34:01.073Z,9.65
2018-05-25T03:35:01.082Z,9.60
2018-05-25T03:36:01.097Z,9.58
2018-05-25T03:37:01.111Z,9.58
2018-05-25T03:38:01.126Z,9.57
2018-05-25T03:39:01.139Z,9.66
2018-05-25T03:40:01.151Z,9.69
2018-05-25T03:41:01.164Z,9.60
2018-05-25T03:42:01.181Z,9.64
2018-05-25T03:43:01.191Z,9.58
2018-05-25T03:44:01.205Z,9.47
2018-05-25T03:45:01.217Z,9.50
2018-05-25T03:46:01.233Z,9.57
2018-05-25T03:47:01.246Z,9.50
2018-05-25T03:48:01.260Z,9.54
2018-05-25T03:49:01.273Z,9.53
2018-05-25T03:50:01.287Z,9.51
2018-05-25T03:51:01.301Z,9.53
2018-05-25T03:52:01.314Z,9.53
2018-05-25T03:53:01.328Z,9.48
2018-05-25T03:54:01.340Z,9.48
2018-05-25T03:55:01.356Z,9.53
2018-05-25T03:56:01.369Z,9.51
2018-05-25T03:57:01.380Z,9.57
2018-05-25T03:58:01.394Z,9.56
2018-05-25T03:59:01.408Z,9.50
2018-05-25T04:00:01.425Z,9.48
2018-05-25T04:01:01.435Z,9.48
2018-05-25T04:02:01.449Z,9.54
2018-05-25T04:03:01.463Z,9.53
2018-05-25T04:04:01.476Z,9.47
2018-05-25T04:05:01.489Z,9.56
2018-05-25T04:06:01.502Z,9.54
2018-05-25T04:07:01.516Z,9.51
2018-05-25T04:08:01.535Z,9.50
2018-05-25T04:09:01.542Z,9.65
2018-05-25T04:10:01.557Z,9.53
2018-05-25T04:11:01.572Z,9.60
2018-05-25T04:12:01.583Z,9.58
2018-05-25T04:13:01.596Z,9.56
2018-05-25T04:14:01.610Z,9.65
2018-05-25T04:15:01.673Z,9.60
2018-05-25T04:16:01.637Z,9.64
2018-05-25T04:17:01.652Z,9.64
2018-05-25T04:18:01.665Z,9.64
2018-05-25T04:19:01.679Z,9.60
2018-05-25T04:20:01.691Z,9.61
2018-05-25T04:21:01.704Z,9.71
2018-05-25T04:22:01.719Z,9.76
2018-05-25T04:23:01.730Z,9.76
2018-05-25T04:24:01.745Z,9.75
2018-05-25T04:25:01.759Z,9.78
2018-05-25T04:26:01.772Z,9.81
2018-05-25T04:27:01.787Z,9.78
2018-05-25T04:28:01.798Z,9.79
2018-05-25T04:29:01.811Z,9.76
2018-05-25T04:30:01.824Z,9.76
2018-05-25T04:31:01.837Z,9.75
2018-05-25T04:32:01.852Z,9.72
2018-05-25T04:33:01.863Z,9.68
2018-05-25T04:34:01.879Z,9.76
2018-05-25T04:35:01.897Z,9.71
2018-05-25T04:36:01.915Z,9.79
2018-05-25T04:37:01.922Z,9.83
2018-05-25T04:38:01.932Z,9.76
2018-05-25T04:39:01.946Z,9.87
2018-05-25T04:40:01.960Z,9.86
2018-05-25T04:41:01.972Z,9.86
2018-05-25T04:42:01.985Z,9.89
2018-05-25T04:43:02.000Z,9.90
2018-05-25T04:44:02.014Z,9.94
2018-05-25T04:45:02.026Z,9.94
2018-05-25T04:46:02.041Z,9.99
2018-05-25T04:47:02.055Z,9.96
2018-05-25T04:48:02.068Z,9.99
2018-05-25T04:49:02.085Z,9.93
2018-05-25T04:50:02.095Z,9.94
2018-05-25T04:51:02.111Z,10.01
2018-05-25T04:52:02.125Z,9.99
2018-05-25T04:53:02.137Z,9.97
2018-05-25T04:54:02.148Z,9.96
2018-05-25T04:55:02.164Z,9.86
2018-05-25T04:56:02.176Z,9.90
2018-05-25T04:57:02.188Z,9.93
2018-05-25T04:58:02.205Z,9.89
2018-05-25T04:59:02.219Z,9.86
2018-05-25T05:00:02.232Z,9.91
2018-05-25T05:01:02.243Z,9.90
2018-05-25T05:02:02.258Z,9.93
2018-05-25T05:03:02.271Z,9.93
2018-05-25T05:04:02.286Z,10.05
2018-05-25T05:05:02.367Z,9.96
2018-05-25T05:06:02.314Z,9.94
2018-05-25T05:07:02.326Z,10.02
2018-05-25T05:08:02.340Z,10.04
2018-05-25T05:09:02.351Z,10.05
2018-05-25T05:10:02.369Z,10.07
2018-05-25T05:11:02.380Z,10.04
2018-05-25T05:12:02.393Z,10.02
2018-05-25T05:13:02.408Z,10.05
2018-05-25T05:14:02.430Z,10.05
2018-05-25T05:15:02.440Z,10.01
2018-05-25T05:16:02.447Z,10.05
2018-05-25T05:17:02.459Z,10.02
2018-05-25T05:18:02.474Z,10.02
2018-05-25T05:19:02.492Z,9.97
2018-05-25T05:20:02.502Z,10.08
2018-05-25T05:21:02.514Z,10.02
2018-05-25T05:22:02.529Z,10.15
2018-05-25T05:23:02.569Z,10.17
2018-05-25T05:24:02.556Z,10.17
2018-05-25T05:25:02.571Z,10.18
2018-05-25T05:26:02.587Z,10.15
2018-05-25T05:27:02.602Z,10.09
2018-05-25T05:28:02.611Z,10.15
2018-05-25T05:29:02.624Z,10.15
2018-05-25T05:30:02.640Z,10.20
2018-05-25T05:31:02.651Z,10.15
2018-05-25T05:32:02.664Z,10.18
2018-05-25T05:33:02.678Z,10.09
2018-05-25T05:34:02.692Z,10.20
2018-05-25T05:35:02.704Z,10.14
2018-05-25T05:36:02.719Z,10.20
2018-05-25T05:37:02.731Z,10.20
2018-05-25T05:38:02.745Z,10.23
2018-05-25T05:39:02.761Z,10.17
2018-05-25T05:40:02.774Z,10.29
2018-05-25T05:41:02.786Z,10.33
2018-05-25T05:42:02.799Z,10.36
2018-05-25T05:43:02.813Z,10.32
2018-05-25T05:44:02.828Z,10.40
2018-05-25T05:45:02.842Z,10.41
2018-05-25T05:46:02.855Z,10.51
2018-05-25T05:47:02.868Z,10.53
2018-05-25T05:48:02.882Z,10.55
2018-05-25T05:49:02.892Z,10.59
2018-05-25T05:50:02.907Z,10.64
2018-05-25T05:51:02.929Z,10.59
2018-05-25T05:52:02.933Z,10.66
2018-05-25T05:53:02.949Z,10.64
2018-05-25T05:54:02.963Z,10.67
2018-05-25T05:55:02.976Z,10.79
2018-05-25T05:56:02.994Z,10.78
2018-05-25T05:57:03.003Z,10.78
2018-05-25T05:58:03.017Z,10.81
2018-05-25T05:59:03.032Z,10.86
2018-05-25T06:00:03.046Z,10.85
2018-05-25T06:01:03.057Z,10.94
2018-05-25T06:02:03.073Z,10.86
2018-05-25T06:03:03.085Z,10.88
2018-05-25T06:04:03.101Z,10.96
2018-05-25T06:05:03.116Z,11.02
2018-05-25T06:06:03.126Z,11.02
2018-05-25T06:07:03.143Z,11.04
2018-05-25T06:08:03.156Z,11.02
2018-05-25T06:09:03.171Z,11.06
2018-05-25T06:10:03.188Z,11.02
2018-05-25T06:11:03.196Z,10.99
2018-05-25T06:12:03.211Z,11.00
2018-05-25T06:13:03.226Z,11.09
2018-05-25T06:14:03.240Z,11.11
2018-05-25T06:15:03.254Z,11.09
2018-05-25T06:16:03.267Z,11.06
2018-05-25T06:17:03.285Z,11.06
2018-05-25T06:18:03.296Z,11.17
2018-05-25T06:19:03.309Z,11.14
2018-05-25T06:20:03.358Z,11.14
2018-05-25T06:21:03.340Z,11.07
2018-05-25T06:22:03.351Z,11.06
2018-05-25T06:23:03.366Z,11.14
2018-05-25T06:24:03.381Z,11.14
2018-05-25T06:25:03.394Z,11.11
2018-05-25T06:26:03.408Z,11.09
2018-05-25T06:27:03.429Z,11.10
2018-05-25T06:28:03.446Z,11.17
2018-05-25T06:29:03.452Z,11.15
2018-05-25T06:30:03.465Z,11.17
2018-05-25T06:31:03.479Z,11.15
2018-05-25T06:32:03.494Z,11.21
2018-05-25T06:33:03.507Z,11.22
2018-05-25T06:34:03.522Z,11.27
2018-05-25T06:35:03.534Z,11.32
2018-05-25T06:36:03.551Z,11.36
2018-05-25T06:37:03.563Z,11.27
2018-05-25T06:38:03.577Z,11.42
2018-05-25T06:39:03.592Z,11.42
2018-05-25T06:40:03.606Z,11.35
2018-05-25T06:41:03.621Z,11.49
2018-05-25T06:42:03.641Z,11.47
2018-05-25T06:43:03.650Z,11.44
2018-05-25T06:44:03.666Z,11.51
2018-05-25T06:45:03.681Z,11.58
2018-05-25T06:46:03.692Z,11.62
2018-05-25T06:47:03.707Z,11.61
2018-05-25T06:48:03.723Z,11.62
2018-05-25T06:49:03.735Z,11.64
2018-05-25T06:50:03.749Z,11.54
2018-05-25T06:51:03.764Z,11.60
2018-05-25T06:52:03.780Z,11.73
2018-05-25T06:53:03.791Z,11.72
2018-05-25T06:54:03.805Z,11.64
2018-05-25T06:55:03.823Z,11.70
2018-05-25T06:56:03.838Z,11.72
2018-05-25T06:57:03.853Z,11.69
2018-05-25T06:58:03.902Z,11.86
2018-05-25T06:59:03.883Z,11.82
2018-05-25T07:00:03.894Z,11.90
2018-05-25T07:01:03.906Z,11.83
2018-05-25T07:02:03.922Z,11.98
2018-05-25T07:03:03.933Z,11.95
2018-05-25T07:04:04.023Z,11.90
2018-05-25T07:05:03.963Z,12.01
2018-05-25T07:06:03.978Z,11.98
2018-05-25T07:07:03.994Z,12.02
2018-05-25T07:08:04.009Z,12.01
2018-05-25T07:09:04.020Z,12.01
2018-05-25T07:10:04.036Z,12.10
2018-05-25T07:11:04.050Z,12.13
2018-05-25T07:12:04.063Z,12.02
2018-05-25T07:13:04.078Z,12.14
2018-05-25T07:14:04.091Z,12.13
2018-05-25T07:15:04.108Z,12.21
2018-05-25T07:16:04.120Z,12.37
2018-05-25T07:17:04.183Z,12.29
2018-05-25T07:18:04.150Z,12.27
2018-05-25T07:19:04.164Z,12.31
2018-05-25T07:20:04.178Z,12.19
2018-05-25T07:21:04.191Z,12.17
2018-05-25T07:22:04.207Z,12.31
2018-05-25T07:23:04.223Z,12.39
2018-05-25T07:24:04.236Z,12.41
2018-05-25T07:25:04.250Z,12.56
2018-05-25T07:26:04.263Z,12.70
2018-05-25T07:27:04.279Z,12.85
2018-05-25T07:28:04.296Z,12.87
2018-05-25T07:29:04.305Z,12.90
2018-05-25T07:30:04.323Z,12.90
2018-05-25T07:31:04.336Z,12.96
2018-05-25T07:32:04.350Z,13.00
2018-05-25T07:33:04.366Z,13.11
2018-05-25T07:34:04.382Z,13.25
2018-05-25T07:35:04.393Z,13.22
2018-05-25T07:36:04.411Z,13.25
2018-05-25T07:37:04.429Z,13.38
2018-05-25T07:38:04.439Z,13.54
2018-05-25T07:39:04.454Z,13.39
2018-05-25T07:40:04.469Z,13.42
2018-05-25T07:41:04.481Z,13.51
2018-05-25T07:42:04.496Z,13.52
2018-05-25T07:43:04.511Z,13.45
2018-05-25T07:44:04.530Z,13.42
2018-05-25T07:45:04.542Z,13.26
2018-05-25T07:46:04.557Z,13.28
2018-05-25T07:47:04.571Z,13.12
2018-05-25T07:48:04.587Z,13.29
2018-05-25T07:49:04.598Z,13.26
2018-05-25T07:50:04.614Z,13.29
2018-05-25T07:51:04.630Z,13.38
2018-05-25T07:52:04.648Z,13.41
2018-05-25T07:53:04.660Z,13.36
2018-05-25T07:54:04.673Z,13.29
2018-05-25T07:55:04.691Z,13.33
2018-05-25T07:56:04.706Z,13.42
2018-05-25T07:57:04.718Z,13.41
2018-05-25T07:58:04.736Z,13.23
2018-05-25T07:59:04.749Z,13.23
2018-05-25T08:00:04.764Z,13.25
2018-05-25T08:01:04.779Z,13.33
2018-05-25T08:02:04.794Z,13.30
2018-05-25T08:03:04.813Z,13.32
2018-05-25T08:04:04.823Z,13.45
2018-05-25T08:05:04.838Z,13.42
2018-05-25T08:06:04.853Z,13.30
2018-05-25T08:07:04.869Z,13.62
2018-05-25T08:08:04.884Z,13.66
2018-05-25T08:09:04.901Z,13.71
2018-05-25T08:10:04.914Z,13.48
2018-05-25T08:11:04.929Z,13.49
2018-05-25T08:12:04.943Z,13.64
2018-05-25T08:13:04.959Z,13.70
2018-05-25T08:14:04.974Z,13.75
2018-05-25T08:15:04.989Z,13.82
2018-05-25T08:16:05.005Z,13.69
2018-05-25T08:17:05.019Z,13.73
2018-05-25T08:18:05.036Z,13.88
2018-05-25T08:19:05.049Z,13.99
2018-05-25T08:20:05.067Z,14.04
2018-05-25T08:21:05.082Z,14.14
2018-05-25T08:22:05.099Z,14.02
2018-05-25T08:23:05.113Z,14.02
2018-05-25T08:24:05.132Z,13.85
2018-05-25T08:25:05.142Z,13.73
2018-05-25T08:26:05.157Z,13.92
2018-05-25T08:27:05.173Z,13.99
2018-05-25T08:28:05.192Z,14.02
2018-05-25T08:29:05.202Z,14.14
2018-05-25T08:30:05.221Z,14.17
2018-05-25T08:31:05.237Z,14.18
2018-05-25T08:32:05.251Z,14.28
2018-05-25T08:33:05.265Z,14.17
2018-05-25T08:34:05.281Z,14.07
2018-05-25T08:35:05.301Z,14.02
2018-05-25T08:36:05.313Z,14.17
2018-05-25T08:37:05.327Z,13.89
2018-05-25T08:38:05.344Z,14.04
2018-05-25T08:39:05.360Z,14.15
2018-05-25T08:40:05.376Z,14.15
2018-05-25T08:41:05.389Z,14.00
2018-05-25T08:42:05.408Z,14.02
2018-05-25T08:43:05.423Z,14.18
2018-05-25T08:44:05.455Z,14.02
2018-05-25T08:45:05.454Z,14.22
2018-05-25T08:46:05.476Z,14.25
2018-05-25T08:47:05.484Z,14.33
2018-05-25T08:48:05.502Z,14.29
2018-05-25T08:49:05.517Z,14.47
2018-05-25T08:50:05.533Z,14.77
2018-05-25T08:51:05.550Z,14.73
2018-05-25T08:52:05.564Z,14.83
2018-05-25T08:53:05.580Z,14.60
2018-05-25T08:54:05.597Z,14.42
2018-05-25T08:55:05.631Z,14.61
2018-05-25T08:56:05.627Z,14.88
2018-05-25T08:57:05.640Z,15.03
2018-05-25T08:58:05.663Z,15.03
2018-05-25T08:59:05.675Z,15.01
2018-05-25T09:00:05.690Z,15.17
2018-05-25T09:01:05.705Z,15.20
2018-05-25T09:02:05.722Z,15.16
2018-05-25T09:03:05.738Z,15.06
2018-05-25T09:04:05.754Z,15.10
2018-05-25T09:05:05.769Z,15.32
2018-05-25T09:06:05.788Z,15.76
2018-05-25T09:07:05.800Z,15.82
2018-05-25T09:08:05.820Z,15.51
2018-05-25T09:09:05.834Z,14.94
2018-05-25T09:10:05.850Z,14.88
2018-05-25T09:11:05.870Z,14.91
2018-05-25T09:12:05.884Z,15.07
2018-05-25T09:13:05.899Z,15.34
2018-05-25T09:14:05.916Z,15.16
2018-05-25T09:15:05.937Z,15.29
2018-05-25T09:16:05.947Z,15.44
2018-05-25T09:17:05.961Z,15.50
2018-05-25T09:18:05.979Z,15.67
2018-05-25T09:19:05.999Z,15.23
2018-05-25T09:20:06.011Z,15.35
2018-05-25T09:21:06.030Z,15.69
2018-05-25T09:22:06.044Z,15.92
2018-05-25T09:23:06.061Z,15.64
2018-05-25T09:24:06.079Z,15.62
2018-05-25T09:25:06.092Z,15.64
2018-05-25T09:26:06.110Z,15.76
2018-05-25T09:27:06.131Z,15.82
2018-05-25T09:28:06.147Z,16.00
2018-05-25T09:29:06.160Z,16.09
2018-05-25T09:30:06.178Z,16.28
2018-05-25T09:31:06.195Z,16.31
2018-05-25T09:32:06.210Z,16.49
2018-05-25T09:33:06.226Z,16.09
2018-05-25T09:34:06.245Z,15.83
2018-05-25T09:35:06.259Z,15.62
2018-05-25T09:36:06.279Z,16.01
2018-05-25T09:37:06.293Z,16.05
2018-05-25T09:38:06.309Z,16.21
2018-05-25T09:39:06.331Z,16.35
2018-05-25T09:40:06.344Z,16.38
2018-05-25T09:41:06.360Z,16.45
2018-05-25T09:42:06.377Z,16.46
2018-05-25T09:43:06.395Z,16.41
2018-05-25T09:44:06.414Z,16.38
2018-05-25T09:45:06.426Z,16.45
2018-05-25T09:46:06.449Z,16.27
2018-05-25T09:47:06.462Z,16.28
2018-05-25T09:48:06.480Z,15.75
2018-05-25T09:49:06.495Z,15.64
2018-05-25T09:50:06.514Z,15.84
2018-05-25T09:51:06.531Z,16.23
2018-05-25T09:52:06.550Z,16.17
2018-05-25T09:53:06.565Z,16.33
2018-05-25T09:54:06.581Z,16.52
2018-05-25T09:55:06.601Z,16.60
2018-05-25T09:56:06.645Z,16.35
2018-05-25T09:57:06.634Z,16.58
2018-05-25T09:58:06.652Z,16.73
2018-05-25T09:59:06.669Z,16.75
2018-05-25T10:00:06.686Z,16.56
2018-05-25T10:01:06.703Z,16.58
2018-05-25T10:02:06.722Z,16.49
2018-05-25T10:03:06.766Z,16.66
2018-05-25T10:04:06.755Z,16.49
2018-05-25T10:05:06.774Z,16.86
2018-05-25T10:06:06.792Z,16.88
2018-05-25T10:07:06.809Z,17.04
2018-05-25T10:08:06.825Z,16.98
2018-05-25T10:09:06.843Z,17.21
2018-05-25T10:10:06.860Z,17.34
2018-05-25T10:11:06.879Z,17.51
2018-05-25T10:12:06.898Z,17.64
2018-05-25T10:13:06.915Z,17.70
2018-05-25T10:14:06.935Z,17.81
2018-05-25T10:15:06.950Z,17.52
2018-05-25T10:16:06.970Z,17.64
2018-05-25T10:17:06.988Z,17.89
2018-05-25T10:18:07.004Z,17.70
2018-05-25T10:19:07.024Z,17.54
2018-05-25T10:20:07.041Z,17.58
2018-05-25T10:21:07.059Z,17.78
2018-05-25T10:22:07.078Z,17.99
2018-05-25T10:23:07.097Z,18.03
2018-05-25T10:24:07.115Z,17.23
2018-05-25T10:25:07.131Z,17.48
2018-05-25T10:26:07.148Z,17.75
2018-05-25T10:27:07.169Z,17.74
2018-05-25T10:28:07.186Z,17.28
2018-05-25T10:29:07.207Z,17.46
2018-05-25T10:30:07.224Z,17.84
2018-05-25T10:31:07.243Z,17.71
2018-05-25T10:32:07.262Z,17.72
2018-05-25T10:33:07.277Z,17.72
2018-05-25T10:34:07.298Z,18.14
2018-05-25T10:35:07.347Z,18.20
2018-05-25T10:36:07.336Z,18.00
2018-05-25T10:37:07.352Z,18.07
2018-05-25T10:38:07.372Z,17.68
2018-05-25T10:39:07.390Z,17.58
2018-05-25T10:40:07.409Z,17.19
2018-05-25T10:41:07.554Z,17.16
2018-05-25T10:42:07.445Z,17.46
2018-05-25T10:43:07.465Z,17.59
2018-05-25T10:44:07.485Z,17.77
2018-05-25T10:45:07.504Z,18.07
2018-05-25T10:46:07.520Z,18.02
2018-05-25T10:47:07.540Z,17.89
2018-05-25T10:48:07.559Z,18.03
2018-05-25T10:49:07.579Z,18.25
2018-05-25T10:50:07.598Z,18.26
2018-05-25T10:51:07.617Z,18.15
2018-05-25T10:52:07.638Z,18.29
2018-05-25T10:53:07.653Z,18.47
2018-05-25T10:54:07.674Z,18.51
2018-05-25T10:55:07.693Z,18.44
2018-05-25T10:56:07.714Z,18.72
2018-05-25T10:57:07.730Z,18.60
2018-05-25T10:58:07.750Z,18.67
2018-05-25T10:59:07.771Z,18.54
2018-05-25T11:00:07.789Z,18.80
2018-05-25T11:01:07.808Z,18.58
2018-05-25T11:02:07.828Z,18.58
2018-05-25T11:03:07.845Z,18.41
2018-05-25T11:04:07.864Z,18.52
2018-05-25T11:05:07.891Z,18.72
2018-05-25T11:06:07.905Z,18.81
2018-05-25T11:07:07.923Z,18.99
2018-05-25T11:08:07.944Z,18.92
2018-05-25T11:09:07.962Z,19.14
2018-05-25T11:10:07.983Z,19.19
2018-05-25T11:11:08.003Z,18.82
2018-05-25T11:12:08.021Z,19.13
2018-05-25T11:13:08.043Z,19.23
2018-05-25T11:14:08.059Z,19.28
2018-05-25T11:15:08.081Z,19.14
2018-05-25T11:16:08.105Z,18.41
2018-05-25T11:17:08.120Z,18.52
2018-05-25T11:18:08.141Z,18.65
2018-05-25T11:19:08.161Z,18.45
2018-05-25T11:20:08.179Z,18.52
2018-05-25T11:21:08.202Z,18.99
2018-05-25T11:22:08.218Z,18.72
2018-05-25T11:23:08.241Z,18.44
2018-05-25T11:24:08.260Z,18.39
2018-05-25T11:25:08.278Z,18.65
2018-05-25T11:26:08.300Z,18.69
2018-05-25T11:27:08.320Z,18.35
2018-05-25T11:28:08.340Z,18.50
2018-05-25T11:29:08.356Z,18.75
2018-05-25T11:30:08.387Z,19.13
2018-05-25T11:31:08.398Z,18.81
2018-05-25T11:32:08.418Z,19.06
2018-05-25T11:33:08.436Z,19.00
2018-05-25T11:34:08.456Z,18.52
2018-05-25T11:35:08.475Z,17.81
2018-05-25T11:36:08.497Z,17.70
2018-05-25T11:37:08.516Z,18.15
2018-05-25T11:38:08.536Z,18.48
2018-05-25T11:39:08.556Z,18.91
2018-05-25T11:40:08.576Z,18.81
2018-05-25T11:41:08.599Z,19.18
2018-05-25T11:42:08.615Z,19.25
2018-05-25T11:43:08.634Z,18.80
2018-05-25T11:44:08.660Z,18.80
2018-05-25T11:45:08.676Z,18.45
2018-05-25T11:46:08.696Z,18.41
2018-05-25T11:47:08.716Z,18.17
2018-05-25T11:48:08.736Z,18.39
2018-05-25T11:49:08.757Z,18.88
2018-05-25T11:50:08.780Z,18.87
2018-05-25T11:51:08.807Z,18.51
2018-05-25T11:52:08.818Z,18.39
2018-05-25T11:53:08.834Z,18.55
2018-05-25T11:54:08.852Z,19.40
2018-05-25T11:55:08.875Z,19.41
2018-05-25T11:56:08.896Z,19.68
2018-05-25T11:57:08.915Z,19.65
2018-05-25T11:58:08.936Z,19.25
2018-05-25T11:59:08.954Z,18.84
2018-05-25T12:00:08.974Z,18.76
2018-05-25T12:01:08.998Z,18.73
2018-05-25T12:02:09.017Z,18.82
2018-05-25T12:03:09.036Z,19.23
2018-05-25T12:04:09.055Z,18.95
2018-05-25T12:05:09.083Z,19.22
2018-05-25T12:06:09.095Z,19.29
2018-05-25T12:07:09.112Z,19.22
2018-05-25T12:08:09.133Z,18.85
2018-05-25T12:09:09.155Z,18.91
2018-05-25T12:10:09.172Z,19.00
2018-05-25T12:11:09.199Z,18.91
2018-05-25T12:12:09.214Z,18.92
2018-05-25T12:13:09.237Z,19.26
2018-05-25T12:14:09.254Z,18.72
2018-05-25T12:15:09.274Z,18.50
2018-05-25T12:16:09.294Z,18.37
2018-05-25T12:17:09.313Z,19.07
2018-05-25T12:18:09.335Z,19.25
2018-05-25T12:19:09.353Z,19.25
2018-05-25T12:20:09.392Z,19.31
2018-05-25T12:21:09.401Z,19.62
2018-05-25T12:22:09.416Z,20.13
2018-05-25T12:23:09.435Z,20.41
2018-05-25T12:24:09.455Z,20.69
2018-05-25T12:25:09.475Z,21.10
2018-05-25T12:26:09.496Z,20.13
2018-05-25T12:27:09.517Z,20.01
2018-05-25T12:28:09.547Z,19.98
2018-05-25T12:29:09.556Z,20.16
2018-05-25T12:30:09.578Z,19.88
2018-05-25T12:31:09.602Z,19.80
2018-05-25T12:32:09.621Z,20.02
2018-05-25T12:33:09.641Z,20.70
2018-05-25T12:34:09.701Z,20.01
2018-05-25T12:35:09.684Z,19.58
2018-05-25T12:36:09.705Z,19.22
2018-05-25T12:37:09.725Z,19.77
2018-05-25T12:38:09.748Z,19.96
2018-05-25T12:39:09.768Z,19.23
2018-05-25T12:40:09.790Z,19.61
2018-05-25T12:41:09.811Z,20.29
2018-05-25T12:42:09.830Z,20.64
2018-05-25T12:43:09.860Z,20.64
2018-05-25T12:44:09.872Z,21.03
2018-05-25T12:45:09.894Z,21.49
2018-05-25T12:46:09.914Z,20.97
2018-05-25T12:47:09.936Z,20.57
2018-05-25T12:48:09.959Z,20.97
2018-05-25T12:49:09.978Z,20.47
2018-05-25T12:50:09.999Z,20.95
2018-05-25T12:51:10.020Z,21.37
2018-05-25T12:52:10.042Z,21.83
2018-05-25T12:53:10.065Z,21.06
2018-05-25T12:54:10.084Z,20.70
2018-05-25T12:55:10.106Z,20.67
2018-05-25T12:56:10.142Z,20.72
2018-05-25T12:57:10.152Z,20.50
2018-05-25T12:58:10.170Z,21.13
2018-05-25T12:59:10.192Z,20.79